sensor_id;sensor_type;location;lat;lon;timestamp;pressure;altitude;pressure_sealevel;temperature;humidity
84147;BME280;74267;50.434;7.398;2023-12-20T00:01:37;100816.44;;;6.38;92.89
84147;BME280;74267;50.434;7.398;2023-12-20T00:04:03;100811.53;;;6.43;93.54
84147;BME280;74267;50.434;7.398;2023-12-20T00:06:29;100818.06;;;6.39;92.92
84147;BME280;74267;50.434;7.398;2023-12-20T00:08:55;100814.78;;;6.45;93.60
84147;BME280;74267;50.434;7.398;2023-12-20T00:11:20;100816.69;;;6.51;92.81
84147;BME280;74267;50.434;7.398;2023-12-20T00:13:45;100814.75;;;6.53;92.51
84147;BME280;74267;50.434;7.398;2023-12-20T00:16:11;100830.44;;;6.53;92.80
84147;BME280;74267;50.434;7.398;2023-12-20T00:18:36;100839.47;;;6.43;92.46
84147;BME280;74267;50.434;7.398;2023-12-20T00:21:02;100819.38;;;6.43;92.73
84147;BME280;74267;50.434;7.398;2023-12-20T00:23:27;100809.59;;;6.37;93.70
84147;BME280;74267;50.434;7.398;2023-12-20T00:25:53;100803.44;;;6.30;94.69
84147;BME280;74267;50.434;7.398;2023-12-20T00:28:18;100805.06;;;6.31;94.33
84147;BME280;74267;50.434;7.398;2023-12-20T00:30:43;100802.56;;;6.38;93.96
84147;BME280;74267;50.434;7.398;2023-12-20T00:33:09;100811.81;;;6.48;93.54
84147;BME280;74267;50.434;7.398;2023-12-20T00:35:34;100825.88;;;6.47;93.42
84147;BME280;74267;50.434;7.398;2023-12-20T00:37:59;100821.94;;;6.51;93.58
84147;BME280;74267;50.434;7.398;2023-12-20T00:40:25;100820.59;;;6.55;92.35
84147;BME280;74267;50.434;7.398;2023-12-20T00:42:50;100820.66;;;6.47;92.43
84147;BME280;74267;50.434;7.398;2023-12-20T00:45:16;100812.50;;;6.42;93.01
84147;BME280;74267;50.434;7.398;2023-12-20T00:47:41;100806.00;;;6.38;94.11
84147;BME280;74267;50.434;7.398;2023-12-20T00:50:07;100806.94;;;6.45;93.17
84147;BME280;74267;50.434;7.398;2023-12-20T00:52:32;100805.66;;;6.41;93.43
84147;BME280;74267;50.434;7.398;2023-12-20T00:54:58;100802.72;;;6.36;93.35
84147;BME280;74267;50.434;7.398;2023-12-20T00:57:23;100802.38;;;6.39;93.41
84147;BME280;74267;50.434;7.398;2023-12-20T00:59:48;100798.47;;;6.43;94.17
84147;BME280;74267;50.434;7.398;2023-12-20T01:02:14;100802.03;;;6.42;93.80
84147;BME280;74267;50.434;7.398;2023-12-20T01:04:39;100804.47;;;6.44;92.77
84147;BME280;74267;50.434;7.398;2023-12-20T01:07:04;100804.63;;;6.50;93.42
84147;BME280;74267;50.434;7.398;2023-12-20T01:09:30;100794.84;;;6.44;92.64
84147;BME280;74267;50.434;7.398;2023-12-20T01:11:55;100804.81;;;6.41;93.48
84147;BME280;74267;50.434;7.398;2023-12-20T01:14:21;100789.38;;;6.31;94.42
84147;BME280;74267;50.434;7.398;2023-12-20T01:16:46;100797.88;;;6.33;93.67
84147;BME280;74267;50.434;7.398;2023-12-20T01:19:12;100806.00;;;6.38;94.10
84147;BME280;74267;50.434;7.398;2023-12-20T01:21:39;100802.88;;;6.43;93.56
84147;BME280;74267;50.434;7.398;2023-12-20T01:24:04;100800.75;;;6.38;93.19
84147;BME280;74267;50.434;7.398;2023-12-20T01:26:30;100804.72;;;6.34;93.42
84147;BME280;74267;50.434;7.398;2023-12-20T01:28:55;100802.38;;;6.39;94.14
84147;BME280;74267;50.434;7.398;2023-12-20T01:31:21;100808.59;;;6.46;93.20
84147;BME280;74267;50.434;7.398;2023-12-20T01:33:46;100799.94;;;6.38;93.61
84147;BME280;74267;50.434;7.398;2023-12-20T01:36:11;100789.72;;;6.28;94.06
84147;BME280;74267;50.434;7.398;2023-12-20T01:38:37;100794.59;;;6.31;94.70
84147;BME280;74267;50.434;7.398;2023-12-20T01:41:03;100791.16;;;6.31;94.56
84147;BME280;74267;50.434;7.398;2023-12-20T01:43:29;100807.63;;;6.39;93.85
84147;BME280;74267;50.434;7.398;2023-12-20T01:45:57;100805.66;;;6.41;93.40
84147;BME280;74267;50.434;7.398;2023-12-20T01:48:23;100799.16;;;6.37;94.54
84147;BME280;74267;50.434;7.398;2023-12-20T01:50:49;100800.41;;;6.41;94.12
84147;BME280;74267;50.434;7.398;2023-12-20T01:53:15;100807.63;;;6.39;93.67
84147;BME280;74267;50.434;7.398;2023-12-20T01:55:41;100817.03;;;6.48;93.15
84147;BME280;74267;50.434;7.398;2023-12-20T01:58:09;100819.41;;;6.35;94.63
84147;BME280;74267;50.434;7.398;2023-12-20T02:00:36;100827.34;;;6.19;94.96
84147;BME280;74267;50.434;7.398;2023-12-20T02:03:02;100821.09;;;6.28;94.73
84147;BME280;74267;50.434;7.398;2023-12-20T02:05:31;100822.38;;;6.32;94.52
84147;BME280;74267;50.434;7.398;2023-12-20T02:07:57;100834.47;;;6.33;94.39
84147;BME280;74267;50.434;7.398;2023-12-20T02:10:23;100834.81;;;6.30;94.41
84147;BME280;74267;50.434;7.398;2023-12-20T02:12:49;100838.09;;;6.24;94.63
84147;BME280;74267;50.434;7.398;2023-12-20T02:15:15;100838.44;;;6.21;95.40
84147;BME280;74267;50.434;7.398;2023-12-20T02:17:40;100842.34;;;6.25;95.43
84147;BME280;74267;50.434;7.398;2023-12-20T02:20:06;100838.72;;;6.26;95.33
84147;BME280;74267;50.434;7.398;2023-12-20T02:22:32;100852.59;;;6.35;94.81
84147;BME280;74267;50.434;7.398;2023-12-20T02:24:57;100835.16;;;6.27;95.40
84147;BME280;74267;50.434;7.398;2023-12-20T02:27:23;100834.41;;;6.41;94.95
84147;BME280;74267;50.434;7.398;2023-12-20T02:29:49;100834.47;;;6.33;95.47
84147;BME280;74267;50.434;7.398;2023-12-20T02:32:16;100838.88;;;6.33;95.58
84147;BME280;74267;50.434;7.398;2023-12-20T02:34:42;100829.25;;;6.33;95.91
84147;BME280;74267;50.434;7.398;2023-12-20T02:37:07;100839.34;;;6.36;95.44
84147;BME280;74267;50.434;7.398;2023-12-20T02:39:33;100834.72;;;6.46;96.06
84147;BME280;74267;50.434;7.398;2023-12-20T02:41:58;100836.81;;;6.51;95.03
84147;BME280;74267;50.434;7.398;2023-12-20T02:44:24;100855.19;;;6.65;95.86
84147;BME280;74267;50.434;7.398;2023-12-20T02:46:49;100846.72;;;6.63;95.59
84147;BME280;74267;50.434;7.398;2023-12-20T02:49:15;100844.72;;;6.65;95.53
84147;BME280;74267;50.434;7.398;2023-12-20T02:51:40;100846.25;;;6.60;95.95
84147;BME280;74267;50.434;7.398;2023-12-20T02:54:05;100849.84;;;6.59;94.78
84147;BME280;74267;50.434;7.398;2023-12-20T02:56:32;100869.28;;;6.64;94.48
84147;BME280;74267;50.434;7.398;2023-12-20T02:58:57;100867.06;;;6.76;94.33
84147;BME280;74267;50.434;7.398;2023-12-20T03:01:23;100881.19;;;6.89;91.07
84147;BME280;74267;50.434;7.398;2023-12-20T03:03:48;100892.78;;;6.95;89.86
84147;BME280;74267;50.434;7.398;2023-12-20T03:06:18;100893.59;;;6.95;84.67
84147;BME280;74267;50.434;7.398;2023-12-20T03:08:44;100906.75;;;6.87;84.43
84147;BME280;74267;50.434;7.398;2023-12-20T03:11:10;100895.69;;;6.77;84.99
84147;BME280;74267;50.434;7.398;2023-12-20T03:13:35;100905.56;;;6.67;82.77
84147;BME280;74267;50.434;7.398;2023-12-20T03:16:00;100915.41;;;6.57;83.18
84147;BME280;74267;50.434;7.398;2023-12-20T03:18:26;100914.13;;;6.53;82.54
84147;BME280;74267;50.434;7.398;2023-12-20T03:20:53;100934.44;;;6.43;83.21
84147;BME280;74267;50.434;7.398;2023-12-20T03:23:18;100933.84;;;6.33;83.53
84147;BME280;74267;50.434;7.398;2023-12-20T03:25:43;100935.44;;;6.34;82.82
84147;BME280;74267;50.434;7.398;2023-12-20T03:28:09;100932.84;;;6.26;86.30
84147;BME280;74267;50.434;7.398;2023-12-20T03:30:34;100924.38;;;6.24;85.69
84147;BME280;74267;50.434;7.398;2023-12-20T03:32:59;100938.78;;;6.20;83.29
84147;BME280;74267;50.434;7.398;2023-12-20T03:35:25;100919.53;;;6.13;86.95
84147;BME280;74267;50.434;7.398;2023-12-20T03:37:50;100924.94;;;5.96;84.70
84147;BME280;74267;50.434;7.398;2023-12-20T03:40:15;100929.34;;;5.95;87.83
84147;BME280;74267;50.434;7.398;2023-12-20T03:42:41;100927.06;;;5.92;87.51
84147;BME280;74267;50.434;7.398;2023-12-20T03:45:06;100917.59;;;5.91;87.41
84147;BME280;74267;50.434;7.398;2023-12-20T03:47:32;100916.00;;;5.90;87.43
84147;BME280;74267;50.434;7.398;2023-12-20T03:49:57;100923.50;;;5.85;88.49
84147;BME280;74267;50.434;7.398;2023-12-20T03:52:22;100920.88;;;5.85;88.64
84147;BME280;74267;50.434;7.398;2023-12-20T03:54:48;100920.25;;;5.83;88.50
84147;BME280;74267;50.434;7.398;2023-12-20T03:57:13;100918.59;;;5.82;88.38
84147;BME280;74267;50.434;7.398;2023-12-20T03:59:38;100915.31;;;5.80;88.51
84147;BME280;74267;50.434;7.398;2023-12-20T04:02:04;100907.47;;;5.72;89.12
84147;BME280;74267;50.434;7.398;2023-12-20T04:04:30;100914.00;;;5.76;90.11
84147;BME280;74267;50.434;7.398;2023-12-20T04:06:55;100910.75;;;5.74;89.66
84147;BME280;74267;50.434;7.398;2023-12-20T04:09:20;100921.84;;;5.68;89.31
84147;BME280;74267;50.434;7.398;2023-12-20T04:11:45;100914.03;;;5.68;89.42
84147;BME280;74267;50.434;7.398;2023-12-20T04:14:11;100915.97;;;5.74;88.88
84147;BME280;74267;50.434;7.398;2023-12-20T04:16:36;100915.97;;;5.74;89.21
84147;BME280;74267;50.434;7.398;2023-12-20T04:19:02;100921.84;;;5.76;88.68
84147;BME280;74267;50.434;7.398;2023-12-20T04:21:27;100914.34;;;5.73;88.75
84147;BME280;74267;50.434;7.398;2023-12-20T04:23:53;100915.81;;;5.76;87.30
84147;BME280;74267;50.434;7.398;2023-12-20T04:26:18;100923.66;;;5.76;87.34
84147;BME280;74267;50.434;7.398;2023-12-20T04:28:43;100928.38;;;5.88;88.19
84147;BME280;74267;50.434;7.398;2023-12-20T04:31:08;100929.53;;;5.86;89.43
84147;BME280;74267;50.434;7.398;2023-12-20T04:33:34;100932.47;;;5.91;88.77
84147;BME280;74267;50.434;7.398;2023-12-20T04:35:59;100933.63;;;5.88;88.13
84147;BME280;74267;50.434;7.398;2023-12-20T04:38:25;100928.53;;;5.79;87.94
84147;BME280;74267;50.434;7.398;2023-12-20T04:40:51;100932.31;;;5.84;87.57
84147;BME280;74267;50.434;7.398;2023-12-20T04:43:16;100932.66;;;5.81;86.69
84147;BME280;74267;50.434;7.398;2023-12-20T04:45:42;100934.78;;;5.86;85.56
84147;BME280;74267;50.434;7.398;2023-12-20T04:48:07;100940.13;;;5.92;86.03
84147;BME280;74267;50.434;7.398;2023-12-20T04:50:33;100937.69;;;5.99;85.48
84147;BME280;74267;50.434;7.398;2023-12-20T04:52:58;100934.91;;;5.92;85.54
84147;BME280;74267;50.434;7.398;2023-12-20T04:55:23;100937.50;;;6.08;86.00
84147;BME280;74267;50.434;7.398;2023-12-20T04:57:49;100936.53;;;6.01;86.92
84147;BME280;74267;50.434;7.398;2023-12-20T05:00:14;100937.34;;;5.94;87.14
84147;BME280;74267;50.434;7.398;2023-12-20T05:02:41;100929.03;;;5.98;85.98
84147;BME280;74267;50.434;7.398;2023-12-20T05:05:07;100933.59;;;5.96;86.72
84147;BME280;74267;50.434;7.398;2023-12-20T05:07:32;100931.66;;;5.90;87.85
84147;BME280;74267;50.434;7.398;2023-12-20T05:09:58;100942.44;;;5.87;88.61
84147;BME280;74267;50.434;7.398;2023-12-20T05:12:24;100942.75;;;5.92;86.44
84147;BME280;74267;50.434;7.398;2023-12-20T05:14:49;100943.41;;;5.94;85.93
84147;BME280;74267;50.434;7.398;2023-12-20T05:17:14;100942.44;;;5.87;86.99
84147;BME280;74267;50.434;7.398;2023-12-20T05:19:39;100936.41;;;5.87;86.60
84147;BME280;74267;50.434;7.398;2023-12-20T05:22:05;100940.47;;;5.89;86.97
84147;BME280;74267;50.434;7.398;2023-12-20T05:24:30;100942.44;;;5.87;86.36
84147;BME280;74267;50.434;7.398;2023-12-20T05:26:55;100932.78;;;5.88;87.66
84147;BME280;74267;50.434;7.398;2023-12-20T05:29:21;100932.66;;;5.81;88.05
84147;BME280;74267;50.434;7.398;2023-12-20T05:31:46;100931.78;;;5.81;87.67
84147;BME280;74267;50.434;7.398;2023-12-20T05:34:12;100933.59;;;5.80;87.83
84147;BME280;74267;50.434;7.398;2023-12-20T05:36:37;100927.44;;;5.81;87.15
84147;BME280;74267;50.434;7.398;2023-12-20T05:39:04;100924.78;;;5.65;86.86
84147;BME280;74267;50.434;7.398;2023-12-20T05:41:30;100938.34;;;5.69;89.29
84147;BME280;74267;50.434;7.398;2023-12-20T05:43:55;100940.13;;;5.76;88.41
84147;BME280;74267;50.434;7.398;2023-12-20T05:46:23;100932.94;;;5.78;88.18
84147;BME280;74267;50.434;7.398;2023-12-20T05:48:48;100932.31;;;5.84;86.56
84147;BME280;74267;50.434;7.398;2023-12-20T05:51:14;100938.53;;;5.83;86.39
84147;BME280;74267;50.434;7.398;2023-12-20T05:53:39;100936.56;;;5.77;87.20
84147;BME280;74267;50.434;7.398;2023-12-20T05:56:04;100931.66;;;5.74;86.26
84147;BME280;74267;50.434;7.398;2023-12-20T05:58:30;100943.59;;;5.69;87.16
84147;BME280;74267;50.434;7.398;2023-12-20T06:00:55;100932.16;;;5.62;87.38
84147;BME280;74267;50.434;7.398;2023-12-20T06:03:20;100945.72;;;5.57;87.58
84147;BME280;74267;50.434;7.398;2023-12-20T06:05:46;100942.59;;;5.62;87.59
84147;BME280;74267;50.434;7.398;2023-12-20T06:08:11;100946.50;;;5.58;88.57
84147;BME280;74267;50.434;7.398;2023-12-20T06:10:36;100960.38;;;5.58;88.25
84147;BME280;74267;50.434;7.398;2023-12-20T06:13:02;100951.91;;;5.48;88.44
84147;BME280;74267;50.434;7.398;2023-12-20T06:15:29;100949.31;;;5.40;87.57
84147;BME280;74267;50.434;7.398;2023-12-20T06:17:54;100953.34;;;5.35;88.31
84147;BME280;74267;50.434;7.398;2023-12-20T06:20:20;100956.47;;;5.38;88.18
84147;BME280;74267;50.434;7.398;2023-12-20T06:22:45;100954.53;;;5.40;87.75
84147;BME280;74267;50.434;7.398;2023-12-20T06:25:10;100954.53;;;5.40;87.25
84147;BME280;74267;50.434;7.398;2023-12-20T06:27:36;100951.56;;;5.35;87.33
84147;BME280;74267;50.434;7.398;2023-12-20T06:30:01;100955.47;;;5.39;87.56
84147;BME280;74267;50.434;7.398;2023-12-20T06:32:26;100953.03;;;5.38;87.49
84147;BME280;74267;50.434;7.398;2023-12-20T06:34:54;100956.78;;;5.35;88.10
84147;BME280;74267;50.434;7.398;2023-12-20T06:37:19;100961.19;;;5.35;88.25
84147;BME280;74267;50.434;7.398;2023-12-20T06:39:45;100962.16;;;5.34;87.76
84147;BME280;74267;50.434;7.398;2023-12-20T06:42:10;100949.75;;;5.28;87.96
84147;BME280;74267;50.434;7.398;2023-12-20T06:44:35;100948.47;;;5.32;87.34
84147;BME280;74267;50.434;7.398;2023-12-20T06:47:02;100955.81;;;5.28;88.17
84147;BME280;74267;50.434;7.398;2023-12-20T06:49:27;100960.88;;;5.30;86.99
84147;BME280;74267;50.434;7.398;2023-12-20T06:51:52;100959.72;;;5.24;87.27
84147;BME280;74267;50.434;7.398;2023-12-20T06:54:18;100962.00;;;5.19;87.50
84147;BME280;74267;50.434;7.398;2023-12-20T06:56:43;100960.38;;;5.18;87.59
84147;BME280;74267;50.434;7.398;2023-12-20T06:59:09;100961.00;;;5.12;87.66
84147;BME280;74267;50.434;7.398;2023-12-20T07:01:34;100959.69;;;5.16;88.19
84147;BME280;74267;50.434;7.398;2023-12-20T07:03:59;100968.84;;;5.12;87.99
84147;BME280;74267;50.434;7.398;2023-12-20T07:06:25;100970.66;;;5.12;87.62
84147;BME280;74267;50.434;7.398;2023-12-20T07:08:51;100969.97;;;5.09;87.22
84147;BME280;74267;50.434;7.398;2023-12-20T07:11:17;100973.41;;;5.10;88.18
84147;BME280;74267;50.434;7.398;2023-12-20T07:13:42;100976.03;;;5.18;87.85
84147;BME280;74267;50.434;7.398;2023-12-20T07:16:07;100962.31;;;5.16;87.55
84147;BME280;74267;50.434;7.398;2023-12-20T07:18:33;100970.13;;;5.16;88.27
84147;BME280;74267;50.434;7.398;2023-12-20T07:20:58;100971.31;;;5.22;88.24
84147;BME280;74267;50.434;7.398;2023-12-20T07:23:23;100961.34;;;5.25;88.16
84147;BME280;74267;50.434;7.398;2023-12-20T07:25:50;100968.53;;;5.23;87.70
84147;BME280;74267;50.434;7.398;2023-12-20T07:28:16;100977.00;;;5.25;88.11
84147;BME280;74267;50.434;7.398;2023-12-20T07:30:41;100970.97;;;5.25;88.30
84147;BME280;74267;50.434;7.398;2023-12-20T07:33:06;100979.47;;;5.27;88.73
84147;BME280;74267;50.434;7.398;2023-12-20T07:35:34;100971.16;;;5.31;88.83
84147;BME280;74267;50.434;7.398;2023-12-20T07:37:59;100971.16;;;5.31;88.50
84147;BME280;74267;50.434;7.398;2023-12-20T07:40:24;100982.56;;;5.38;88.12
84147;BME280;74267;50.434;7.398;2023-12-20T07:42:50;100984.88;;;5.41;87.71
84147;BME280;74267;50.434;7.398;2023-12-20T07:45:15;100978.97;;;5.39;87.63
84147;BME280;74267;50.434;7.398;2023-12-20T07:47:40;100970.50;;;5.37;87.87
84147;BME280;74267;50.434;7.398;2023-12-20T07:50:06;100979.97;;;5.30;87.63
84147;BME280;74267;50.434;7.398;2023-12-20T07:52:31;100989.25;;;5.41;87.87
84147;BME280;74267;50.434;7.398;2023-12-20T07:54:57;100992.53;;;5.43;87.74
84147;BME280;74267;50.434;7.398;2023-12-20T07:57:23;100983.56;;;5.45;87.73
84147;BME280;74267;50.434;7.398;2023-12-20T07:59:48;100985.19;;;5.46;87.72
84147;BME280;74267;50.434;7.398;2023-12-20T08:02:14;100986.84;;;5.47;87.22
84147;BME280;74267;50.434;7.398;2023-12-20T08:04:40;100987.47;;;5.41;88.10
84147;BME280;74267;50.434;7.398;2023-12-20T08:07:06;100990.09;;;5.41;87.67
84147;BME280;74267;50.434;7.398;2023-12-20T08:09:32;100989.59;;;5.46;87.71
84147;BME280;74267;50.434;7.398;2023-12-20T08:11:59;100992.38;;;5.44;87.79
84147;BME280;74267;50.434;7.398;2023-12-20T08:14:25;100990.56;;;5.45;88.15
84147;BME280;74267;50.434;7.398;2023-12-20T08:16:50;101002.66;;;5.46;87.98
84147;BME280;74267;50.434;7.398;2023-12-20T08:19:16;101007.72;;;5.47;88.08
84147;BME280;74267;50.434;7.398;2023-12-20T08:21:41;101005.44;;;5.52;86.91
84147;BME280;74267;50.434;7.398;2023-12-20T08:24:07;101007.72;;;5.55;87.97
84147;BME280;74267;50.434;7.398;2023-12-20T08:26:33;101004.13;;;5.56;87.06
84147;BME280;74267;50.434;7.398;2023-12-20T08:28:58;101004.78;;;5.58;87.30
84147;BME280;74267;50.434;7.398;2023-12-20T08:31:23;101012.94;;;5.55;86.87
84147;BME280;74267;50.434;7.398;2023-12-20T08:33:49;101012.47;;;5.60;86.88
84147;BME280;74267;50.434;7.398;2023-12-20T08:36:14;101012.97;;;5.63;88.24
84147;BME280;74267;50.434;7.398;2023-12-20T08:38:40;101018.19;;;5.63;87.69
84147;BME280;74267;50.434;7.398;2023-12-20T08:41:06;101009.19;;;5.58;87.23
84147;BME280;74267;50.434;7.398;2023-12-20T08:43:34;101013.28;;;5.60;87.88
84147;BME280;74267;50.434;7.398;2023-12-20T08:45:59;101007.38;;;5.66;88.23
84147;BME280;74267;50.434;7.398;2023-12-20T08:48:25;101000.53;;;5.65;87.59
84147;BME280;74267;50.434;7.398;2023-12-20T08:50:50;101007.41;;;5.74;87.39
84147;BME280;74267;50.434;7.398;2023-12-20T08:53:18;101010.69;;;5.84;86.57
84147;BME280;74267;50.434;7.398;2023-12-20T08:55:43;101007.09;;;5.85;87.53
84147;BME280;74267;50.434;7.398;2023-12-20T08:58:08;101010.38;;;5.87;86.99
84147;BME280;74267;50.434;7.398;2023-12-20T09:00:34;100999.59;;;5.90;86.67
84147;BME280;74267;50.434;7.398;2023-12-20T09:03:01;101004.81;;;5.90;86.33
84147;BME280;74267;50.434;7.398;2023-12-20T09:05:26;100996.00;;;5.91;87.72
84147;BME280;74267;50.434;7.398;2023-12-20T09:07:52;100997.28;;;5.95;87.16
84147;BME280;74267;50.434;7.398;2023-12-20T09:10:17;100995.00;;;6.00;86.22
84147;BME280;74267;50.434;7.398;2023-12-20T09:12:50;100989.13;;;5.98;86.22
84147;BME280;74267;50.434;7.398;2023-12-20T09:15:16;100990.41;;;6.02;86.24
84147;BME280;74267;50.434;7.398;2023-12-20T09:17:41;100992.38;;;6.08;86.22
84147;BME280;74267;50.434;7.398;2023-12-20T09:20:07;100999.75;;;6.05;86.57
84147;BME280;74267;50.434;7.398;2023-12-20T09:22:33;101000.19;;;6.16;86.01
84147;BME280;74267;50.434;7.398;2023-12-20T09:24:59;100999.84;;;6.19;85.62
84147;BME280;74267;50.434;7.398;2023-12-20T09:27:25;100985.50;;;6.23;86.42
84147;BME280;74267;50.434;7.398;2023-12-20T09:29:50;100976.34;;;6.27;84.96
84147;BME280;74267;50.434;7.398;2023-12-20T09:32:16;100978.28;;;6.33;84.17
84147;BME280;74267;50.434;7.398;2023-12-20T09:34:41;100977.28;;;6.34;82.67
84147;BME280;74267;50.434;7.398;2023-12-20T09:37:07;100978.25;;;6.41;80.52
84147;BME280;74267;50.434;7.398;2023-12-20T09:39:33;100983.13;;;6.44;81.64
84147;BME280;74267;50.434;7.398;2023-12-20T09:42:03;100993.56;;;6.52;81.80
84147;BME280;74267;50.434;7.398;2023-12-20T09:44:30;100995.06;;;6.55;81.11
84147;BME280;74267;50.434;7.398;2023-12-20T09:46:56;100995.66;;;6.65;79.49
84147;BME280;74267;50.434;7.398;2023-12-20T09:49:22;100992.09;;;6.88;78.97
84147;BME280;74267;50.434;7.398;2023-12-20T09:51:50;101000.06;;;7.03;78.02
84147;BME280;74267;50.434;7.398;2023-12-20T09:54:17;100991.69;;;7.07;78.90
84147;BME280;74267;50.434;7.398;2023-12-20T09:56:43;100989.59;;;7.25;76.35
84147;BME280;74267;50.434;7.398;2023-12-20T09:59:09;100980.41;;;7.29;77.16
84147;BME280;74267;50.434;7.398;2023-12-20T10:01:35;100967.69;;;7.26;77.83
84147;BME280;74267;50.434;7.398;2023-12-20T10:04:06;100972.69;;;7.36;77.05
84147;BME280;74267;50.434;7.398;2023-12-20T10:06:44;100968.53;;;7.41;77.04
84147;BME280;74267;50.434;7.398;2023-12-20T10:09:10;100964.22;;;7.48;76.03
84147;BME280;74267;50.434;7.398;2023-12-20T10:11:37;100965.22;;;7.47;76.31
84147;BME280;74267;50.434;7.398;2023-12-20T10:14:03;100976.63;;;7.54;76.40
84147;BME280;74267;50.434;7.398;2023-12-20T10:16:29;100973.50;;;7.59;77.12
84147;BME280;74267;50.434;7.398;2023-12-20T10:18:55;100969.00;;;7.68;73.41
84147;BME280;74267;50.434;7.398;2023-12-20T10:21:22;100953.28;;;7.68;75.39
84147;BME280;74267;50.434;7.398;2023-12-20T10:23:48;100948.72;;;7.62;74.77
84147;BME280;74267;50.434;7.398;2023-12-20T10:26:22;100937.97;;;7.57;75.86
84147;BME280;74267;50.434;7.398;2023-12-20T10:28:55;100938.94;;;7.55;75.25
84147;BME280;74267;50.434;7.398;2023-12-20T10:31:29;100955.19;;;7.51;75.77
84147;BME280;74267;50.434;7.398;2023-12-20T10:33:58;100936.84;;;7.51;74.94
84147;BME280;74267;50.434;7.398;2023-12-20T10:36:26;100948.16;;;7.51;75.69
84147;BME280;74267;50.434;7.398;2023-12-20T10:38:55;100943.91;;;7.50;75.51
84147;BME280;74267;50.434;7.398;2023-12-20T10:41:27;100947.47;;;7.57;74.93
84147;BME280;74267;50.434;7.398;2023-12-20T10:43:59;100952.69;;;7.57;74.73
84147;BME280;74267;50.434;7.398;2023-12-20T10:46:26;100952.19;;;7.62;73.57
84147;BME280;74267;50.434;7.398;2023-12-20T10:48:53;100949.91;;;7.59;75.06
84147;BME280;74267;50.434;7.398;2023-12-20T10:51:20;100940.22;;;7.59;74.54
84147;BME280;74267;50.434;7.398;2023-12-20T10:53:47;100948.72;;;7.62;74.38
84147;BME280;74267;50.434;7.398;2023-12-20T10:56:19;100951.53;;;7.60;75.82
84147;BME280;74267;50.434;7.398;2023-12-20T10:58:45;100951.09;;;7.57;76.15
84147;BME280;74267;50.434;7.398;2023-12-20T11:01:13;100946.19;;;7.53;76.02
84147;BME280;74267;50.434;7.398;2023-12-20T11:03:44;100941.56;;;7.55;76.48
84147;BME280;74267;50.434;7.398;2023-12-20T11:09:25;100922.88;;;7.58;75.58
84147;BME280;74267;50.434;7.398;2023-12-20T11:12:01;100928.13;;;7.58;75.20
84147;BME280;74267;50.434;7.398;2023-12-20T11:14:50;100924.88;;;7.57;76.61
84147;BME280;74267;50.434;7.398;2023-12-20T11:17:16;100932.44;;;7.51;76.77
84147;BME280;74267;50.434;7.398;2023-12-20T11:22:27;100932.78;;;7.48;77.88
84147;BME280;74267;50.434;7.398;2023-12-20T11:25:05;100926.38;;;7.51;77.77
84147;BME280;74267;50.434;7.398;2023-12-20T11:27:33;100917.91;;;7.49;77.21
84147;BME280;74267;50.434;7.398;2023-12-20T11:29:59;100926.56;;;7.49;77.85
84147;BME280;74267;50.434;7.398;2023-12-20T11:34:55;100914.75;;;7.53;77.11
84147;BME280;74267;50.434;7.398;2023-12-20T11:37:21;100914.41;;;7.57;76.65
84147;BME280;74267;50.434;7.398;2023-12-20T11:40:00;100911.78;;;7.57;77.78
84147;BME280;74267;50.434;7.398;2023-12-20T11:42:25;100904.72;;;7.57;77.00
84147;BME280;74267;50.434;7.398;2023-12-20T11:44:51;100906.81;;;7.62;77.08
84147;BME280;74267;50.434;7.398;2023-12-20T11:47:16;100902.91;;;7.57;77.75
84147;BME280;74267;50.434;7.398;2023-12-20T11:49:44;100913.22;;;7.59;77.50
84147;BME280;74267;50.434;7.398;2023-12-20T11:52:12;100910.44;;;7.61;77.31
84147;BME280;74267;50.434;7.398;2023-12-20T11:54:37;100906.47;;;7.65;76.06
84147;BME280;74267;50.434;7.398;2023-12-20T11:57:02;100913.31;;;7.66;78.19
84147;BME280;74267;50.434;7.398;2023-12-20T11:59:28;100921.34;;;7.64;76.50
84147;BME280;74267;50.434;7.398;2023-12-20T12:01:53;100911.34;;;7.68;77.33
84147;BME280;74267;50.434;7.398;2023-12-20T12:04:21;100912.00;;;7.70;76.96
84147;BME280;74267;50.434;7.398;2023-12-20T12:06:46;100898.50;;;7.73;77.89
84147;BME280;74267;50.434;7.398;2023-12-20T12:09:12;100907.50;;;7.78;76.34
84147;BME280;74267;50.434;7.398;2023-12-20T12:11:37;100887.31;;;7.79;76.59
84147;BME280;74267;50.434;7.398;2023-12-20T12:14:03;100886.78;;;7.83;76.05
84147;BME280;74267;50.434;7.398;2023-12-20T12:16:29;100883.34;;;7.83;76.93
84147;BME280;74267;50.434;7.398;2023-12-20T12:18:58;100892.66;;;7.85;75.98
84147;BME280;74267;50.434;7.398;2023-12-20T12:21:24;100891.47;;;7.88;76.63
84147;BME280;74267;50.434;7.398;2023-12-20T12:23:49;100894.75;;;7.90;75.39
84147;BME280;74267;50.434;7.398;2023-12-20T12:26:15;100886.50;;;7.93;76.47
84147;BME280;74267;50.434;7.398;2023-12-20T12:28:41;100893.56;;;7.92;75.40
84147;BME280;74267;50.434;7.398;2023-12-20T12:31:08;100891.75;;;7.93;75.75
84147;BME280;74267;50.434;7.398;2023-12-20T12:33:34;100889.13;;;7.93;75.23
84147;BME280;74267;50.434;7.398;2023-12-20T12:36:00;100886.50;;;7.93;76.03
84147;BME280;74267;50.434;7.398;2023-12-20T12:38:26;100885.16;;;7.97;76.38
84147;BME280;74267;50.434;7.398;2023-12-20T12:40:52;100891.38;;;7.96;76.67
84147;BME280;74267;50.434;7.398;2023-12-20T12:43:18;100884.97;;;8.42;74.45
84147;BME280;74267;50.434;7.398;2023-12-20T12:45:44;100880.53;;;8.57;74.33
84147;BME280;74267;50.434;7.398;2023-12-20T12:48:09;100870.28;;;8.62;74.74
84147;BME280;74267;50.434;7.398;2023-12-20T12:50:35;100874.41;;;8.71;74.70
84147;BME280;74267;50.434;7.398;2023-12-20T12:53:01;100866.03;;;8.82;74.94
84147;BME280;74267;50.434;7.398;2023-12-20T12:55:27;100863.41;;;8.82;74.53
84147;BME280;74267;50.434;7.398;2023-12-20T12:57:53;100863.41;;;8.82;74.98
84147;BME280;74267;50.434;7.398;2023-12-20T13:00:18;100859.16;;;8.81;74.35
84147;BME280;74267;50.434;7.398;2023-12-20T13:02:44;100852.69;;;8.77;74.42